Time;durP1;ratioP1;P1;durP2;ratioP2;P2;SDS_P1;SDS_P2;PMS_P1;PMS_P2;Temp;Humidity;BMP_temperature;BMP_pressure;BME280_temperature;BME280_humidity;BME280_pressure;Samples;Min_cycle;Max_cycle;Signal;HPM_P1;HPM_P2
2022/09/21 00:01:49;;;;;;;8.43;1.90;;;11.80;99.90;;;;;;6217668;22;20024;-86
2022/09/21 00:04:18;;;;;;;4.68;1.60;;;11.70;99.90;;;;;;6192534;22;20338;-87
2022/09/21 00:06:49;;;;;;;4.72;1.85;;;11.90;99.90;;;;;;6219301;23;20020;-86
2022/09/21 00:09:15;;;;;;;4.40;1.80;;;11.60;99.90;;;;;;6187902;23;20378;-88
2022/09/21 00:11:44;;;;;;;5.55;1.70;;;11.60;99.90;;;;;;6212282;23;20363;-87
2022/09/21 00:14:13;;;;;;;4.38;1.58;;;11.50;99.90;;;;;;6212840;23;20016;-87
2022/09/21 00:16:45;;;;;;;5.25;1.73;;;11.40;99.90;;;;;;6189485;23;20051;-87
2022/09/21 00:19:16;;;;;;;5.70;1.85;;;11.40;99.90;;;;;;6213341;23;20095;-87
2022/09/21 00:21:42;;;;;;;3.72;1.60;;;11.40;99.90;;;;;;6187478;23;20082;-87
2022/09/21 00:24:11;;;;;;;3.28;1.70;;;11.30;99.90;;;;;;6186902;23;20016;-86
2022/09/21 00:26:37;;;;;;;8.70;1.92;;;11.30;99.90;;;;;;6189331;23;20071;-86
2022/09/21 00:29:03;;;;;;;4.25;1.40;;;11.20;99.90;;;;;;6162880;23;20031;-85
2022/09/21 00:31:35;;;;;;;7.65;1.80;;;11.20;99.90;;;;;;6212346;23;20023;-86
2022/09/21 00:34:02;;;;;;;4.10;1.40;;;11.30;99.90;;;;;;6185621;23;20038;-87
2022/09/21 00:36:30;;;;;;;2.53;1.20;;;11.10;99.90;;;;;;6188946;23;20016;-87
2022/09/21 00:39:00;;;;;;;5.88;1.70;;;11.00;99.90;;;;;;6211663;23;20082;-87
2022/09/21 00:41:29;;;;;;;4.78;1.90;;;11.00;99.90;;;;;;6211497;23;20020;-86
2022/09/21 00:44:26;;;;;;;3.53;1.50;;;10.90;99.90;;;;;;6186332;23;20023;-86
2022/09/21 00:47:08;;;;;;;5.95;1.63;;;9.50;99.90;;;;;;6188053;23;20027;-87
2022/09/21 00:49:41;;;;;;;6.80;2.00;;;10.90;99.90;;;;;;6187455;23;20026;-85
2022/09/21 00:52:33;;;;;;;4.05;1.40;;;10.90;99.90;;;;;;6211921;23;20346;-87
2022/09/21 00:55:28;;;;;;;4.78;1.50;;;10.00;99.90;;;;;;6211394;23;20020;-86
2022/09/21 00:58:11;;;;;;;2.42;1.50;;;10.80;99.90;;;;;;6216295;23;20412;-86
2022/09/21 01:00:42;;;;;;;5.18;1.48;;;10.80;99.90;;;;;;6190900;23;20048;-86
2022/09/21 01:03:11;;;;;;;3.65;1.60;;;10.80;99.90;;;;;;6165974;23;20016;-87
2022/09/21 01:05:39;;;;;;;2.88;1.50;;;10.80;99.90;;;;;;6188936;23;20055;-87
2022/09/21 01:08:11;;;;;;;3.88;1.75;;;10.80;99.90;;;;;;6187677;23;20047;-87
2022/09/21 01:11:15;;;;;;;4.70;1.98;;;10.90;99.90;;;;;;6186922;23;20355;-86
2022/09/21 01:13:59;;;;;;;4.40;1.75;;;10.80;99.90;;;;;;6187075;23;20056;-86
2022/09/21 01:16:49;;;;;;;5.03;1.65;;;10.80;99.90;;;;;;6188126;23;20351;-86
2022/09/21 01:19:37;;;;;;;4.47;1.73;;;10.80;99.90;;;;;;6187298;23;20024;-86
2022/09/21 01:22:27;;;;;;;4.82;2.05;;;9.70;99.90;;;;;;6187269;23;20107;-85
2022/09/21 01:25:23;;;;;;;4.32;1.75;;;9.40;99.90;;;;;;6187272;23;20023;-87
2022/09/21 01:28:14;;;;;;;7.88;1.90;;;10.90;99.90;;;;;;6187916;23;20020;-88
2022/09/21 01:30:42;;;;;;;5.13;1.90;;;11.00;99.90;;;;;;6187319;23;20016;-86
2022/09/21 01:33:22;;;;;;;6.63;1.77;;;10.80;99.90;;;;;;6211336;23;20032;-87
2022/09/21 01:36:06;;;;;;;;;;;;;;;;;;;;;
2022/09/21 01:38:42;;;;;;;4.22;1.98;;;10.80;99.90;;;;;;6212755;23;20016;-86
2022/09/21 01:41:19;;;;;;;4.22;1.70;;;10.80;99.90;;;;;;6185432;23;20020;-86
2022/09/21 01:43:52;;;;;;;3.05;1.75;;;10.80;99.90;;;;;;6212417;23;20019;-86
2022/09/21 01:46:21;;;;;;;5.13;1.70;;;11.80;99.90;;;;;;6188047;23;20024;-85
2022/09/21 01:48:53;;;;;;;3.72;1.70;;;10.80;99.90;;;;;;6187250;23;20055;-85
2022/09/21 01:51:21;;;;;;;4.68;1.60;;;10.80;99.90;;;;;;6187364;23;20027;-86
2022/09/21 01:53:53;;;;;;;4.05;1.50;;;10.70;99.90;;;;;;6187243;23;20071;-84
2022/09/21 01:56:35;;;;;;;2.75;1.70;;;10.80;99.90;;;;;;6187305;23;20051;-87
2022/09/21 01:59:10;;;;;;;6.22;1.63;;;10.70;99.90;;;;;;6187172;23;20452;-86
2022/09/21 02:01:45;;;;;;;5.83;1.97;;;10.90;99.90;;;;;;6188147;23;20016;-87
2022/09/21 02:04:15;;;;;;;4.15;1.67;;;10.60;99.90;;;;;;6187340;23;20027;-87
2022/09/21 02:06:46;;;;;;;2.38;1.58;;;10.70;99.90;;;;;;6236785;22;20532;-86
2022/09/21 02:09:12;;;;;;;3.03;1.60;;;10.60;99.90;;;;;;6242620;22;20098;-86
2022/09/21 02:11:42;;;;;;;4.32;1.42;;;10.60;99.90;;;;;;6242834;22;20022;-86
2022/09/21 02:14:20;;;;;;;4.35;1.70;;;10.40;99.90;;;;;;6216385;22;20020;-86
2022/09/21 02:17:10;;;;;;;7.35;2.95;;;10.40;99.90;;;;;;6218257;22;20066;-86
2022/09/21 02:19:56;;;;;;;2.55;1.45;;;8.60;99.90;;;;;;6229498;22;20016;-86
2022/09/21 02:23:02;;;;;;;4.80;2.00;;;10.40;99.90;;;;;;6242466;22;20016;-86
2022/09/21 02:25:40;;;;;;;3.53;1.60;;;10.50;99.90;;;;;;6217254;22;20031;-86
2022/09/21 02:28:21;;;;;;;3.95;1.50;;;10.40;99.90;;;;;;6218008;22;20123;-86
2022/09/21 02:31:06;;;;;;;5.10;1.63;;;10.40;99.90;;;;;;6218798;22;20452;-85
2022/09/21 02:33:40;;;;;;;3.03;1.63;;;10.40;99.90;;;;;;6242890;22;20023;-87
2022/09/21 02:36:19;;;;;;;2.95;1.50;;;10.30;99.90;;;;;;6244012;22;20090;-86
2022/09/21 02:38:55;;;;;;;3.03;1.40;;;10.20;99.90;;;;;;6272284;22;20026;-87
2022/09/21 02:42:00;;;;;;;3.67;1.40;;;10.30;99.90;;;;;;6219303;22;20054;-87
2022/09/21 02:44:32;;;;;;;3.08;1.50;;;10.10;99.90;;;;;;6244007;22;20095;-87
2022/09/21 02:47:11;;;;;;;4.60;1.98;;;10.10;99.90;;;;;;6219517;22;20326;-86
2022/09/21 02:50:00;;;;;;;4.05;1.92;;;10.00;99.90;;;;;;6218973;22;20024;-87
2022/09/21 02:52:31;;;;;;;5.32;2.03;;;10.10;99.90;;;;;;6219209;22;20077;-87
2022/09/21 02:55:01;;;;;;;4.25;1.65;;;10.10;99.90;;;;;;6243629;22;20016;-86
2022/09/21 02:57:30;;;;;;;3.88;2.17;;;10.00;99.90;;;;;;6225082;22;20072;-85
2022/09/21 02:59:56;;;;;;;2.97;1.60;;;10.00;99.90;;;;;;6251745;22;20019;-86
2022/09/21 03:02:22;;;;;;;5.07;1.83;;;10.00;99.90;;;;;;6226558;22;20083;-86
2022/09/21 03:04:50;;;;;;;3.90;1.88;;;10.00;99.90;;;;;;6251242;22;20016;-87
2022/09/21 03:07:18;;;;;;;3.45;2.03;;;10.00;99.90;;;;;;6220367;22;20024;-86
2022/09/21 03:09:45;;;;;;;2.63;1.60;;;9.60;99.90;;;;;;6220073;22;20023;-87
2022/09/21 03:12:14;;;;;;;4.80;2.10;;;10.00;99.90;;;;;;6217840;22;20026;-86
2022/09/21 03:14:42;;;;;;;6.97;2.38;;;10.00;99.90;;;;;;6217917;22;20024;-87
2022/09/21 03:17:10;;;;;;;3.70;1.90;;;10.00;99.90;;;;;;6219014;22;20115;-86
2022/09/21 03:19:39;;;;;;;6.13;2.13;;;10.80;99.90;;;;;;6218840;22;20050;-86
2022/09/21 03:22:05;;;;;;;4.97;2.15;;;10.40;99.90;;;;;;6218764;22;20069;-88
2022/09/21 03:24:46;;;;;;;5.78;2.33;;;10.20;99.90;;;;;;6243788;22;20340;-87
2022/09/21 03:27:14;;;;;;;3.25;1.80;;;10.30;99.90;;;;;;6197789;22;20107;-87
2022/09/21 03:29:42;;;;;;;3.50;1.75;;;10.20;99.90;;;;;;6219338;22;20024;-87
2022/09/21 03:32:11;;;;;;;5.85;2.10;;;10.40;99.90;;;;;;6193645;22;20019;-87
2022/09/21 03:34:40;;;;;;;4.72;1.98;;;10.20;99.90;;;;;;6218549;22;20016;-88
2022/09/21 03:37:09;;;;;;;5.30;2.10;;;9.50;99.90;;;;;;6218477;22;20438;-86
2022/09/21 03:39:35;;;;;;;3.67;1.63;;;9.20;99.90;;;;;;6217376;22;20275;-87
2022/09/21 03:42:01;;;;;;;3.78;1.88;;;10.30;99.90;;;;;;6218443;22;20455;-86
2022/09/21 03:44:27;;;;;;;5.32;2.10;;;10.30;99.90;;;;;;6218008;22;20020;-86
2022/09/21 03:46:53;;;;;;;4.97;1.77;;;10.40;99.90;;;;;;6243951;22;20019;-86
2022/09/21 03:49:31;;;;;;;3.42;1.70;;;10.40;99.90;;;;;;6218532;22;20019;-87
2022/09/21 03:51:58;;;;;;;3.60;1.80;;;10.30;99.90;;;;;;6218951;22;20090;-86
2022/09/21 03:54:26;;;;;;;5.20;2.42;;;10.40;99.90;;;;;;6217367;22;20031;-86
2022/09/21 03:56:52;;;;;;;4.35;1.73;;;10.50;99.90;;;;;;6244058;22;20020;-86
2022/09/21 03:59:21;;;;;;;4.22;2.03;;;10.40;99.90;;;;;;6218209;22;20321;-85
2022/09/21 04:01:49;;;;;;;4.75;1.98;;;10.40;99.90;;;;;;6193395;22;20043;-87
2022/09/21 04:04:15;;;;;;;4.93;1.85;;;10.40;99.90;;;;;;6242169;22;20039;-86
2022/09/21 04:06:45;;;;;;;3.50;1.80;;;10.30;99.90;;;;;;6242801;22;20482;-86
2022/09/21 04:09:13;;;;;;;4.63;1.70;;;10.40;99.90;;;;;;6191865;22;20498;-86
2022/09/21 04:11:39;;;;;;;5.07;2.00;;;10.30;99.90;;;;;;6215567;22;20113;-87
2022/09/21 04:14:08;;;;;;;3.60;1.67;;;10.50;99.90;;;;;;6216361;22;20020;-86
2022/09/21 04:16:36;;;;;;;4.75;2.15;;;10.30;99.90;;;;;;6218509;22;20031;-84
2022/09/21 04:19:02;;;;;;;7.75;3.00;;;10.30;99.90;;;;;;6192568;22;20024;-85
2022/09/21 04:21:28;;;;;;;5.03;1.92;;;9.50;99.90;;;;;;6215970;22;20073;-86
2022/09/21 04:23:54;;;;;;;6.38;1.85;;;10.10;99.90;;;;;;6241439;22;20071;-85
2022/09/21 04:26:32;;;;;;;4.15;1.70;;;10.30;99.90;;;;;;6217147;22;20346;-85
2022/09/21 04:28:58;;;;;;;4.07;1.88;;;10.30;99.90;;;;;;6217207;22;20023;-85
2022/09/21 04:31:25;;;;;;;5.57;1.95;;;10.20;99.90;;;;;;6215868;22;20024;-85
2022/09/21 04:33:52;;;;;;;3.95;1.63;;;10.10;99.90;;;;;;6214251;22;20500;-86
2022/09/21 04:36:22;;;;;;;4.97;2.00;;;10.20;99.90;;;;;;6217265;22;20081;-84
2022/09/21 04:38:50;;;;;;;3.33;1.70;;;10.10;99.90;;;;;;6217731;22;20019;-84
2022/09/21 04:41:17;;;;;;;4.50;2.17;;;10.00;99.90;;;;;;6216095;22;20055;-85
2022/09/21 04:43:47;;;;;;;5.38;2.58;;;10.00;99.90;;;;;;6191249;22;20038;-85
2022/09/21 04:46:18;;;;;;;6.00;1.95;;;10.10;99.90;;;;;;6216800;22;20026;-84
2022/09/21 04:48:45;;;;;;;6.22;2.13;;;9.90;99.90;;;;;;6217489;22;20103;-86
2022/09/21 04:51:14;;;;;;;8.32;2.17;;;9.90;99.90;;;;;;6216241;22;20374;-86
2022/09/21 04:53:41;;;;;;;4.38;1.70;;;9.80;99.90;;;;;;6216951;22;20024;-86
2022/09/21 04:56:08;;;;;;;3.53;1.42;;;9.60;99.90;;;;;;6241797;22;20736;-85
2022/09/21 04:58:35;;;;;;;4.43;2.00;;;9.90;99.90;;;;;;6218279;22;20019;-86
2022/09/21 05:01:01;;;;;;;5.18;1.95;;;9.80;99.90;;;;;;6220784;22;20020;-84
2022/09/21 05:03:30;;;;;;;4.18;1.75;;;9.70;99.90;;;;;;6190094;22;20102;-83
2022/09/21 05:05:56;;;;;;;5.38;1.95;;;8.70;99.90;;;;;;6192156;22;20046;-84
2022/09/21 05:11:14;;;;;;;3.97;1.80;;;9.70;99.90;;;;;;6241335;22;20024;-83
2022/09/21 05:13:41;;;;;;;3.85;1.75;;;8.40;99.90;;;;;;6215671;22;20165;-84
2022/09/21 05:16:08;;;;;;;5.28;2.67;;;9.60;99.90;;;;;;6217054;22;20043;-84
2022/09/21 05:18:34;;;;;;;5.00;2.10;;;9.60;99.90;;;;;;6241573;22;20020;-84
2022/09/21 05:21:01;;;;;;;4.53;2.20;;;9.70;99.90;;;;;;6217641;22;20026;-84
2022/09/21 05:23:33;;;;;;;7.85;2.38;;;9.60;99.90;;;;;;6241869;22;20335;-83
2022/09/21 05:25:59;;;;;;;6.82;2.10;;;9.60;99.90;;;;;;6217279;22;20516;-86
2022/09/21 05:28:26;;;;;;;7.85;1.90;;;9.20;99.90;;;;;;6215442;22;20023;-84
2022/09/21 05:31:17;;;;;;;6.95;2.13;;;9.70;99.90;;;;;;6242207;22;20023;-84
2022/09/21 05:34:04;;;;;;;5.72;2.35;;;9.70;99.90;;;;;;6216337;22;20469;-82
2022/09/21 05:36:36;;;;;;;4.93;2.22;;;9.60;99.90;;;;;;6216054;22;20012;-83
2022/09/21 05:39:02;;;;;;;6.85;2.85;;;9.70;99.90;;;;;;6215458;22;20051;-86
2022/09/21 05:41:28;;;;;;;7.57;2.28;;;9.70;99.90;;;;;;6215685;22;20404;-81
2022/09/21 05:43:54;;;;;;;4.45;2.10;;;9.70;99.90;;;;;;6215339;22;20023;-83
2022/09/21 05:46:47;;;;;;;5.97;2.70;;;9.80;99.90;;;;;;6215243;22;20023;-83
2022/09/21 05:49:51;;;;;;;4.65;2.58;;;9.80;99.90;;;;;;6214569;22;20103;-83
2022/09/21 05:52:31;;;;;;;4.05;2.15;;;10.00;99.90;;;;;;6216900;22;20098;-82
2022/09/21 05:55:02;;;;;;;7.57;2.60;;;9.90;99.90;;;;;;6216833;22;20115;-85
2022/09/21 05:57:53;;;;;;;4.75;2.53;;;10.00;99.90;;;;;;6241791;22;20026;-85
2022/09/21 06:00:21;;;;;;;4.07;2.20;;;10.00;99.90;;;;;;6216602;22;20362;-84
2022/09/21 06:03:08;;;;;;;6.90;2.63;;;10.10;99.90;;;;;;6217998;22;20660;-82
2022/09/21 06:05:34;;;;;;;7.10;2.30;;;10.10;99.90;;;;;;6219714;22;20099;-88
2022/09/21 06:08:00;;;;;;;3.40;2.15;;;10.10;99.90;;;;;;6220162;22;20020;-87
2022/09/21 06:10:36;;;;;;;5.13;1.90;;;10.10;99.90;;;;;;6220146;22;20039;-86
2022/09/21 06:13:11;;;;;;;7.85;2.47;;;9.10;99.90;;;;;;6224257;22;20020;-85
2022/09/21 06:15:42;;;;;;;6.10;2.20;;;10.10;99.90;;;;;;6248866;22;20016;-85
2022/09/21 06:18:16;;;;;;;4.63;2.38;;;10.20;99.90;;;;;;6202302;22;20102;-85
2022/09/21 06:20:46;;;;;;;4.53;2.33;;;10.30;99.90;;;;;;6197468;22;20020;-87
2022/09/21 06:23:13;;;;;;;6.25;2.10;;;9.20;99.90;;;;;;6217601;22;20016;-85
2022/09/21 06:25:39;;;;;;;6.38;2.03;;;10.40;99.90;;;;;;6219613;22;20020;-87
2022/09/21 06:28:10;;;;;;;4.95;1.98;;;10.50;99.90;;;;;;6219048;22;20034;-86
2022/09/21 06:30:40;;;;;;;4.78;1.98;;;10.60;99.90;;;;;;6245696;22;20020;-88
2022/09/21 06:33:22;;;;;;;;;;;;;;;;;;;;;
2022/09/21 06:35:53;;;;;;;3.88;1.90;;;10.70;99.90;;;;;;6248152;22;20065;-86
2022/09/21 06:38:20;;;;;;;3.58;1.40;;;10.80;99.90;;;;;;6221301;22;20016;-86
2022/09/21 06:40:46;;;;;;;4.28;2.10;;;10.20;99.90;;;;;;6247405;22;20019;-85
2022/09/21 06:43:11;;;;;;;5.22;1.70;;;10.90;99.90;;;;;;6247522;22;20073;-85
2022/09/21 06:45:37;;;;;;;7.05;3.55;;;11.10;99.90;;;;;;6221608;22;20470;-85
2022/09/21 06:48:10;;;;;;;8.18;2.28;;;11.30;99.90;;;;;;6197096;22;20063;-88
2022/09/21 06:50:36;;;;;;;4.90;1.80;;;11.30;99.90;;;;;;6197038;22;20026;-85
2022/09/21 06:53:03;;;;;;;5.20;1.80;;;11.50;99.90;;;;;;6247071;22;20015;-85
2022/09/21 06:55:32;;;;;;;4.13;1.92;;;11.20;99.90;;;;;;6221144;22;20037;-85
2022/09/21 06:58:04;;;;;;;3.22;1.90;;;11.70;99.90;;;;;;6247252;22;20085;-86
2022/09/21 07:00:30;;;;;;;8.18;1.95;;;11.80;99.90;;;;;;6221459;22;20062;-87
2022/09/21 07:02:59;;;;;;;2.35;1.50;;;11.80;99.90;;;;;;6220040;22;20065;-86
2022/09/21 07:05:25;;;;;;;4.35;2.03;;;12.10;99.90;;;;;;6217798;22;20019;-86
2022/09/21 07:08:06;;;;;;;6.40;2.10;;;12.10;99.90;;;;;;6217734;22;20153;-86
2022/09/21 07:10:36;;;;;;;4.38;1.80;;;12.10;99.90;;;;;;6215881;22;20058;-87
2022/09/21 07:13:07;;;;;;;5.40;1.70;;;12.20;99.90;;;;;;6241413;22;20018;-87
2022/09/21 07:15:33;;;;;;;4.10;1.52;;;12.30;99.90;;;;;;6217394;22;20077;-86
2022/09/21 07:17:59;;;;;;;4.28;1.80;;;12.50;99.90;;;;;;6218397;22;20795;-86
2022/09/21 07:20:27;;;;;;;5.25;1.58;;;12.50;99.90;;;;;;6246614;22;20058;-87
2022/09/21 07:22:56;;;;;;;4.18;1.48;;;12.70;99.90;;;;;;6194442;22;20553;-86
2022/09/21 07:25:24;;;;;;;4.40;1.75;;;12.80;99.90;;;;;;6243935;22;20094;-87
2022/09/21 07:27:53;;;;;;;7.70;2.25;;;12.90;99.90;;;;;;6193563;22;20102;-88
2022/09/21 07:30:19;;;;;;;3.35;1.65;;;13.30;99.90;;;;;;6193278;22;20022;-86
2022/09/21 07:32:49;;;;;;;6.07;2.15;;;13.20;99.90;;;;;;6219365;22;20051;-86
2022/09/21 07:35:15;;;;;;;5.68;1.40;;;13.40;99.90;;;;;;6217742;22;20019;-88
2022/09/21 07:37:44;;;;;;;4.15;1.48;;;12.50;99.90;;;;;;6217550;22;20069;-86
2022/09/21 07:40:13;;;;;;;5.18;1.20;;;13.80;99.90;;;;;;6244725;22;20012;-86
2022/09/21 07:42:40;;;;;;;3.35;1.23;;;13.90;99.90;;;;;;6193596;22;20019;-86
2022/09/21 07:45:07;;;;;;;3.97;1.27;;;14.10;99.90;;;;;;6218132;22;20161;-87
2022/09/21 07:47:33;;;;;;;6.90;1.50;;;13.50;99.90;;;;;;6219312;22;20058;-86
2022/09/21 07:49:59;;;;;;;5.47;1.67;;;13.80;99.90;;;;;;6241410;22;20027;-87
2022/09/21 07:52:27;;;;;;;4.43;1.30;;;14.70;99.90;;;;;;6215110;22;20085;-87
2022/09/21 07:54:55;;;;;;;3.95;1.02;;;14.90;99.90;;;;;;6215192;22;20439;-86
2022/09/21 08:00:19;;;;;;;4.70;1.02;;;15.30;99.90;;;;;;6243335;22;20024;-88
2022/09/21 08:02:50;;;;;;;5.38;0.98;;;15.60;99.90;;;;;;6242999;22;20051;-86
2022/09/21 08:05:16;;;;;;;2.78;0.95;;;15.80;99.90;;;;;;6217676;22;20552;-86
2022/09/21 08:07:42;;;;;;;3.65;0.95;;;16.00;99.90;;;;;;6242432;22;20397;-86
2022/09/21 08:10:08;;;;;;;3.63;0.80;;;16.20;99.90;;;;;;6215954;22;20023;-85
2022/09/21 08:12:34;;;;;;;5.55;1.27;;;16.60;99.90;;;;;;6214959;22;20055;-87
2022/09/21 08:15:00;;;;;;;3.00;0.90;;;16.40;99.90;;;;;;6215009;22;20031;-88
2022/09/21 08:17:26;;;;;;;2.88;0.95;;;16.50;99.90;;;;;;6191874;22;20046;-87
2022/09/21 08:19:54;;;;;;;1.95;0.90;;;16.60;99.90;;;;;;6193882;22;20490;-86
2022/09/21 08:22:24;;;;;;;2.72;0.80;;;16.70;99.90;;;;;;6245334;22;20366;-87
2022/09/21 08:24:51;;;;;;;4.97;0.82;;;16.60;99.90;;;;;;6218373;22;20499;-87
2022/09/21 08:27:19;;;;;;;2.50;0.80;;;16.40;99.90;;;;;;6244412;22;20016;-88
2022/09/21 08:29:45;;;;;;;4.95;1.23;;;16.30;99.90;;;;;;6218585;22;20015;-87
2022/09/21 08:32:11;;;;;;;5.10;0.80;;;16.40;99.90;;;;;;6219256;22;20027;-87
2022/09/21 08:34:37;;;;;;;5.07;0.90;;;16.20;99.90;;;;;;6243959;22;20020;-87
2022/09/21 08:37:06;;;;;;;5.47;1.10;;;16.10;99.90;;;;;;6245518;22;20015;-87
2022/09/21 08:39:32;;;;;;;3.38;1.00;;;16.10;99.90;;;;;;6220484;22;20350;-87
2022/09/21 08:42:07;;;;;;;4.38;0.80;;;16.00;99.90;;;;;;6196272;22;20020;-87
2022/09/21 08:44:44;;;;;;;3.60;1.08;;;15.90;99.90;;;;;;6219490;22;20020;-87
2022/09/21 08:47:38;;;;;;;7.15;1.10;;;15.80;99.90;;;;;;6220133;22;20023;-87
2022/09/21 08:50:21;;;;;;;5.20;1.00;;;15.90;99.90;;;;;;6246601;22;20102;-86
2022/09/21 08:52:55;;;;;;;4.95;0.90;;;15.60;99.90;;;;;;6221182;22;20019;-87
2022/09/21 08:55:24;;;;;;;5.57;1.05;;;15.70;99.90;;;;;;6224134;22;20451;-85
2022/09/21 08:57:53;;;;;;;3.05;0.73;;;15.60;99.90;;;;;;6223713;22;20031;-88
2022/09/21 09:00:19;;;;;;;3.47;0.80;;;15.80;99.90;;;;;;6224486;22;20033;-87
2022/09/21 09:02:45;;;;;;;3.13;0.80;;;15.80;99.90;;;;;;6222373;22;20058;-88
2022/09/21 09:05:22;;;;;;;4.05;1.02;;;15.90;99.90;;;;;;6221012;22;20016;-87
2022/09/21 09:08:09;;;;;;;3.00;1.02;;;16.20;99.90;;;;;;6220375;22;20015;-88
2022/09/21 09:10:46;;;;;;;2.53;1.10;;;16.50;99.90;;;;;;6220222;22;20023;-87
2022/09/21 09:13:41;;;;;;;3.97;0.80;;;16.90;99.90;;;;;;6221111;22;20020;-87
2022/09/21 09:16:35;;;;;;;5.53;1.17;;;17.50;99.90;;;;;;6222776;22;20019;-87
2022/09/21 09:19:21;;;;;;;3.63;0.82;;;16.70;99.90;;;;;;6245349;22;20020;-85
2022/09/21 09:21:55;;;;;;;4.35;1.00;;;17.90;99.90;;;;;;6219487;22;20026;-89
2022/09/21 09:24:36;;;;;;;2.10;0.80;;;18.00;99.90;;;;;;6219482;22;20524;-87
2022/09/21 09:27:48;;;;;;;3.40;1.00;;;18.20;99.90;;;;;;6218058;22;20095;-87
2022/09/21 09:30:17;;;;;;;3.25;0.90;;;18.30;99.90;;;;;;6226820;22;20494;-87
2022/09/21 09:32:52;;;;;;;3.10;0.88;;;18.10;99.90;;;;;;6224249;22;20024;-86
2022/09/21 09:35:29;;;;;;;4.78;0.70;;;17.80;99.90;;;;;;6226250;22;20094;-86
2022/09/21 09:38:06;;;;;;;3.35;1.00;;;18.90;99.90;;;;;;6222771;22;20020;-86
2022/09/21 09:41:05;;;;;;;3.53;1.10;;;18.50;99.90;;;;;;6247314;22;20474;-87
2022/09/21 09:43:47;;;;;;;2.92;0.98;;;19.40;99.90;;;;;;6247097;22;20081;-87
2022/09/21 09:46:39;;;;;;;2.97;0.73;;;19.00;99.90;;;;;;6224380;22;20012;-87
2022/09/21 09:49:33;;;;;;;4.03;0.70;;;18.80;99.90;;;;;;6224814;22;20081;-87
2022/09/21 09:51:59;;;;;;;3.72;0.80;;;20.00;99.90;;;;;;6251042;22;20046;-88
2022/09/21 09:54:34;;;;;;;5.90;0.80;;;19.30;99.90;;;;;;6222444;22;20023;-86
2022/09/21 09:57:03;;;;;;;2.43;0.93;;;19.40;99.90;;;;;;6223442;22;20015;-86
2022/09/21 09:59:49;;;;;;;2.47;0.70;;;18.60;99.90;;;;;;6223340;22;20282;-86
2022/09/21 10:02:25;;;;;;;;;;;19.70;99.90;;;;;;6249043;22;20020;-88
2022/09/21 10:05:21;;;;;;;2.83;0.70;;;19.70;99.90;;;;;;6245277;22;19919;-91
2022/09/21 10:07:52;;;;;;;3.28;0.80;;;19.60;99.90;;;;;;6243505;22;20027;-88
2022/09/21 10:17:05;;;;;;;;;;;;;;;;;;;;;
2022/09/21 10:20:43;;;;;;;;;;;;;;;;;;;;;
2022/09/21 10:26:41;;;;;;;3.03;0.82;;;19.90;99.90;;;;;;6249535;22;20027;-85
2022/09/21 10:29:37;;;;;;;3.78;0.77;;;19.80;99.90;;;;;;6244231;22;20019;-86
2022/09/21 10:32:05;;;;;;;;;;;19.80;99.90;;;;;;6216878;22;20212;-87
2022/09/21 10:34:40;;;;;;;3.28;0.70;;;19.90;99.90;;;;;;6216866;22;19919;-87
2022/09/21 10:37:40;;;;;;;3.88;1.00;;;20.00;99.90;;;;;;6216059;22;20098;-86
2022/09/21 10:40:23;;;;;;;3.22;0.88;;;20.20;99.80;;;;;;6216847;22;20129;-87
2022/09/21 10:43:41;;;;;;;2.35;1.00;;;19.30;99.60;;;;;;6240317;22;20444;-87
2022/09/21 10:46:12;;;;;;;3.90;0.80;;;20.40;99.90;;;;;;6221925;22;20051;-87
2022/09/21 10:48:47;;;;;;;3.00;0.80;;;20.50;99.90;;;;;;6214295;22;20023;-87
2022/09/21 10:51:27;;;;;;;2.92;0.80;;;20.60;99.50;;;;;;6216931;22;20031;-85
2022/09/21 10:53:53;;;;;;;2.47;0.80;;;20.70;99.30;;;;;;6212365;22;20089;-85
2022/09/21 10:56:19;;;;;;;4.03;0.77;;;21.00;99.30;;;;;;6188525;22;20439;-86
2022/09/21 10:59:12;;;;;;;4.15;0.88;;;21.30;99.20;;;;;;6213695;22;20012;-87
2022/09/21 11:01:47;;;;;;;3.65;0.70;;;21.60;97.80;;;;;;6239120;22;20046;-86
2022/09/21 11:04:25;;;;;;;4.25;0.60;;;22.00;97.90;;;;;;6241421;22;20019;-86
2022/09/21 11:07:02;;;;;;;2.50;0.80;;;22.30;96.90;;;;;;6214401;22;20399;-87
2022/09/21 11:09:32;;;;;;;2.90;0.80;;;22.40;96.50;;;;;;6217072;22;20050;-87
2022/09/21 11:12:08;;;;;;;4.90;1.00;;;22.70;96.90;;;;;;6215576;22;20430;-86
2022/09/21 11:14:52;;;;;;;4.10;0.85;;;23.10;95.70;;;;;;6214795;22;20098;-86
2022/09/21 11:17:39;;;;;;;3.67;0.77;;;23.30;95.10;;;;;;6238659;22;20444;-85
2022/09/21 11:20:35;;;;;;;2.90;1.02;;;23.40;93.40;;;;;;6213385;22;20031;-84
2022/09/21 11:23:19;;;;;;;3.10;0.88;;;23.50;94.30;;;;;;6214112;22;20454;-89
2022/09/21 11:25:52;;;;;;;3.95;1.02;;;23.50;93.50;;;;;;6215383;22;20016;-87
2022/09/21 11:28:46;;;;;;;3.25;0.70;;;23.60;93.60;;;;;;6217587;22;20023;-89
2022/09/21 11:32:16;;;;;;;;;;;;;;;;;;;;;
2022/09/21 11:35:10;;;;;;;3.00;0.77;;;23.50;92.20;;;;;;6243965;22;20027;-91
2022/09/21 11:37:56;;;;;;;2.72;0.95;;;23.30;93.10;;;;;;6219085;22;20020;-90
2022/09/21 11:41:21;;;;;;;5.32;0.82;;;23.70;93.00;;;;;;6216983;22;20023;-92
2022/09/21 11:44:18;;;;;;;3.30;0.98;;;23.80;91.20;;;;;;6220421;22;20077;-90
2022/09/21 11:47:04;;;;;;;4.13;1.08;;;23.60;92.10;;;;;;6243491;22;20106;-89
2022/09/21 11:49:36;;;;;;;;;;;23.80;91.20;;;;;;6243572;22;20067;-90
2022/09/21 11:52:32;;;;;;;3.97;0.90;;;23.90;91.20;;;;;;6243142;22;19919;-88
2022/09/21 11:55:10;;;;;;;3.05;0.80;;;24.20;90.70;;;;;;6216014;22;20366;-89
2022/09/21 11:57:48;;;;;;;3.28;0.70;;;24.40;91.50;;;;;;6217796;22;20028;-89
2022/09/21 12:00:20;;;;;;;2.55;0.75;;;24.40;90.00;;;;;;6217063;22;20439;-89
2022/09/21 12:03:01;;;;;;;2.85;0.75;;;24.50;90.40;;;;;;6219783;22;20069;-91
2022/09/21 12:06:06;;;;;;;3.40;0.75;;;24.50;89.90;;;;;;6213774;22;20016;-85
2022/09/21 12:08:51;;;;;;;3.00;0.90;;;24.20;89.90;;;;;;6163530;22;20019;-84
2022/09/21 12:11:38;;;;;;;3.88;0.93;;;24.10;89.00;;;;;;6240521;22;20015;-85
2022/09/21 12:14:31;;;;;;;4.35;1.10;;;24.00;88.00;;;;;;6211356;22;20095;-87
2022/09/21 12:17:07;;;;;;;2.42;0.60;;;24.10;89.90;;;;;;6237917;22;20015;-87
2022/09/21 12:19:51;;;;;;;2.92;0.77;;;24.50;89.60;;;;;;6238185;22;20439;-86
2022/09/21 12:22:28;;;;;;;6.30;1.15;;;24.00;88.80;;;;;;6213381;22;20439;-87
2022/09/21 12:25:20;;;;;;;2.55;0.77;;;24.10;88.50;;;;;;6213449;22;20019;-87
2022/09/21 12:28:16;;;;;;;2.40;0.70;;;24.30;88.70;;;;;;6238574;22;20016;-85
2022/09/21 12:30:51;;;;;;;2.60;0.95;;;24.50;88.50;;;;;;6239675;22;20513;-86
2022/09/21 12:33:41;;;;;;;4.85;1.17;;;24.70;88.10;;;;;;6240251;22;20351;-87
2022/09/21 12:36:18;;;;;;;2.88;0.80;;;25.10;87.20;;;;;;6214077;22;20016;-85
2022/09/21 12:39:15;;;;;;;3.88;0.90;;;25.20;86.10;;;;;;6213781;22;20028;-85
2022/09/21 12:42:00;;;;;;;2.67;0.73;;;25.30;85.40;;;;;;6216384;22;20026;-86
2022/09/21 12:44:51;;;;;;;2.85;0.70;;;25.30;84.50;;;;;;6223497;22;20019;-86
2022/09/21 12:47:26;;;;;;;3.28;0.73;;;25.40;83.70;;;;;;6226464;22;20023;-86
2022/09/21 12:50:07;;;;;;;4.45;0.90;;;25.20;83.00;;;;;;6251427;22;20020;-85
2022/09/21 12:52:37;;;;;;;3.30;0.90;;;25.40;82.60;;;;;;6219520;22;20350;-86
2022/09/21 12:55:27;;;;;;;4.38;0.80;;;25.40;83.00;;;;;;6218409;22;20019;-86
2022/09/21 12:58:06;;;;;;;3.05;0.85;;;25.70;82.60;;;;;;6214784;22;20350;-86
2022/09/21 13:00:47;;;;;;;4.32;0.82;;;25.50;81.40;;;;;;6240058;22;20055;-84
2022/09/21 13:03:29;;;;;;;2.03;0.70;;;25.10;81.00;;;;;;6215028;22;20371;-86
2022/09/21 13:06:01;;;;;;;2.10;0.98;;;25.30;82.30;;;;;;6213762;22;20328;-86
2022/09/21 13:08:39;;;;;;;2.05;0.80;;;25.00;81.60;;;;;;6213723;22;20031;-85
2022/09/21 13:11:27;;;;;;;4.07;0.93;;;24.90;81.90;;;;;;6214591;22;20024;-86
2022/09/21 13:14:03;;;;;;;4.75;0.90;;;24.50;81.60;;;;;;6213834;22;20095;-85
2022/09/21 13:16:53;;;;;;;3.72;0.85;;;24.90;80.60;;;;;;6241969;22;20017;-85
2022/09/21 13:19:24;;;;;;;2.78;0.68;;;24.30;80.80;;;;;;6204729;22;20020;-84
2022/09/21 13:22:20;;;;;;;2.75;0.80;;;24.30;82.00;;;;;;6241581;22;20095;-84
2022/09/21 13:25:00;;;;;;;2.92;0.80;;;24.30;81.60;;;;;;6215698;22;20103;-84
2022/09/21 13:28:04;;;;;;;2.53;0.93;;;24.20;81.10;;;;;;6215916;22;20028;-84
2022/09/21 13:30:34;;;;;;;3.30;0.82;;;24.10;83.10;;;;;;6244759;22;20077;-83
2022/09/21 13:33:03;;;;;;;5.70;0.98;;;24.30;82.10;;;;;;6218352;22;20024;-84
2022/09/21 13:35:47;;;;;;;3.17;0.70;;;24.30;81.70;;;;;;6241636;22;20331;-84
2022/09/21 13:38:49;;;;;;;4.45;1.30;;;24.20;82.10;;;;;;6242678;22;20069;-84
2022/09/21 13:41:25;;;;;;;3.97;1.35;;;24.40;80.60;;;;;;6219265;22;20157;-84
2022/09/21 13:43:57;;;;;;;;;;;24.90;79.80;;;;;;6243764;22;20023;-84
2022/09/21 13:46:35;;;;;;;3.42;0.65;;;24.80;79.70;;;;;;6218780;22;19921;-83
2022/09/21 13:49:17;;;;;;;2.15;0.60;;;24.60;78.60;;;;;;6218353;22;20020;-84
2022/09/21 13:52:12;;;;;;;3.20;0.77;;;24.40;79.80;;;;;;6243004;22;20020;-84
2022/09/21 13:54:44;;;;;;;4.35;0.90;;;24.20;79.80;;;;;;6214329;22;20055;-90
2022/09/21 13:57:18;;;;;;;3.30;0.75;;;24.30;80.10;;;;;;6213201;22;20649;-86